sensor_id;sensor_type;location;lat;lon;timestamp;P1;durP1;ratioP1;P2;durP2;ratioP2
21190;SDS011;10753;52.304;20.990;2022-07-23T00:00:49;25.08;;;17.77;;
21190;SDS011;10753;52.304;20.990;2022-07-23T00:03:15;22.05;;;16.45;;
21190;SDS011;10753;52.304;20.990;2022-07-23T00:05:40;21.42;;;18.60;;
21190;SDS011;10753;52.304;20.990;2022-07-23T00:08:06;18.85;;;16.65;;
21190;SDS011;10753;52.304;20.990;2022-07-23T00:10:32;22.17;;;16.85;;
21190;SDS011;10753;52.304;20.990;2022-07-23T00:12:58;18.88;;;16.48;;
21190;SDS011;10753;52.304;20.990;2022-07-23T00:15:24;22.35;;;17.77;;
21190;SDS011;10753;52.304;20.990;2022-07-23T00:17:50;20.00;;;15.65;;
21190;SDS011;10753;52.304;20.990;2022-07-23T00:20:16;20.23;;;16.15;;
21190;SDS011;10753;52.304;20.990;2022-07-23T00:22:51;22.55;;;17.20;;
21190;SDS011;10753;52.304;20.990;2022-07-23T00:25:19;18.80;;;16.60;;
21190;SDS011;10753;52.304;20.990;2022-07-23T00:27:46;20.90;;;17.08;;
21190;SDS011;10753;52.304;20.990;2022-07-23T00:30:12;24.38;;;18.80;;
21190;SDS011;10753;52.304;20.990;2022-07-23T00:32:45;21.17;;;18.02;;
21190;SDS011;10753;52.304;20.990;2022-07-23T00:35:16;30.23;;;18.65;;
21190;SDS011;10753;52.304;20.990;2022-07-23T00:37:44;21.50;;;19.08;;
21190;SDS011;10753;52.304;20.990;2022-07-23T00:40:10;18.02;;;15.75;;
21190;SDS011;10753;52.304;20.990;2022-07-23T00:42:36;19.58;;;16.85;;
21190;SDS011;10753;52.304;20.990;2022-07-23T00:45:02;18.58;;;16.08;;
21190;SDS011;10753;52.304;20.990;2022-07-23T00:47:28;18.58;;;15.85;;
21190;SDS011;10753;52.304;20.990;2022-07-23T00:49:54;21.73;;;16.80;;
21190;SDS011;10753;52.304;20.990;2022-07-23T00:52:19;19.92;;;16.60;;
21190;SDS011;10753;52.304;20.990;2022-07-23T00:54:45;22.48;;;16.50;;
21190;SDS011;10753;52.304;20.990;2022-07-23T00:57:11;17.45;;;15.70;;
21190;SDS011;10753;52.304;20.990;2022-07-23T00:59:38;19.65;;;15.90;;
21190;SDS011;10753;52.304;20.990;2022-07-23T01:02:04;20.98;;;16.23;;
21190;SDS011;10753;52.304;20.990;2022-07-23T01:04:30;20.95;;;16.08;;
21190;SDS011;10753;52.304;20.990;2022-07-23T01:06:55;18.08;;;15.68;;
21190;SDS011;10753;52.304;20.990;2022-07-23T01:09:21;23.50;;;15.43;;
21190;SDS011;10753;52.304;20.990;2022-07-23T01:11:47;19.92;;;15.68;;
21190;SDS011;10753;52.304;20.990;2022-07-23T01:14:16;19.30;;;15.70;;
21190;SDS011;10753;52.304;20.990;2022-07-23T01:16:44;17.95;;;16.05;;
21190;SDS011;10753;52.304;20.990;2022-07-23T01:19:12;21.00;;;16.00;;
21190;SDS011;10753;52.304;20.990;2022-07-23T01:21:49;21.25;;;15.30;;
21190;SDS011;10753;52.304;20.990;2022-07-23T01:24:16;17.85;;;15.73;;
21190;SDS011;10753;52.304;20.990;2022-07-23T01:26:45;21.73;;;15.52;;
21190;SDS011;10753;52.304;20.990;2022-07-23T01:29:11;19.58;;;16.30;;
21190;SDS011;10753;52.304;20.990;2022-07-23T01:31:38;20.00;;;17.00;;
21190;SDS011;10753;52.304;20.990;2022-07-23T01:34:04;20.08;;;15.82;;
21190;SDS011;10753;52.304;20.990;2022-07-23T01:36:32;19.67;;;15.88;;
21190;SDS011;10753;52.304;20.990;2022-07-23T01:39:01;21.73;;;17.23;;
21190;SDS011;10753;52.304;20.990;2022-07-23T01:41:28;18.73;;;16.08;;
21190;SDS011;10753;52.304;20.990;2022-07-23T01:43:54;19.35;;;16.88;;
21190;SDS011;10753;52.304;20.990;2022-07-23T01:46:20;19.63;;;15.82;;
21190;SDS011;10753;52.304;20.990;2022-07-23T01:48:45;19.95;;;16.30;;
21190;SDS011;10753;52.304;20.990;2022-07-23T01:51:11;16.55;;;14.90;;
21190;SDS011;10753;52.304;20.990;2022-07-23T01:53:37;15.63;;;13.98;;
21190;SDS011;10753;52.304;20.990;2022-07-23T01:56:02;17.35;;;14.13;;
21190;SDS011;10753;52.304;20.990;2022-07-23T01:58:28;18.67;;;14.27;;
21190;SDS011;10753;52.304;20.990;2022-07-23T02:00:54;20.65;;;13.57;;
21190;SDS011;10753;52.304;20.990;2022-07-23T02:03:20;17.88;;;14.38;;
21190;SDS011;10753;52.304;20.990;2022-07-23T02:05:47;19.23;;;14.95;;
21190;SDS011;10753;52.304;20.990;2022-07-23T02:08:13;14.80;;;13.35;;
21190;SDS011;10753;52.304;20.990;2022-07-23T02:10:38;16.60;;;14.05;;
21190;SDS011;10753;52.304;20.990;2022-07-23T02:13:04;17.85;;;13.30;;
21190;SDS011;10753;52.304;20.990;2022-07-23T02:15:30;17.63;;;13.95;;
21190;SDS011;10753;52.304;20.990;2022-07-23T02:17:56;18.98;;;14.45;;
21190;SDS011;10753;52.304;20.990;2022-07-23T02:20:22;15.25;;;13.55;;
21190;SDS011;10753;52.304;20.990;2022-07-23T02:22:48;18.17;;;15.13;;
21190;SDS011;10753;52.304;20.990;2022-07-23T02:25:14;19.38;;;15.00;;
21190;SDS011;10753;52.304;20.990;2022-07-23T02:27:40;24.92;;;17.20;;
21190;SDS011;10753;52.304;20.990;2022-07-23T02:30:06;23.60;;;16.23;;
21190;SDS011;10753;52.304;20.990;2022-07-23T02:32:32;24.67;;;17.55;;
21190;SDS011;10753;52.304;20.990;2022-07-23T02:34:58;22.13;;;17.02;;
21190;SDS011;10753;52.304;20.990;2022-07-23T02:37:24;20.08;;;16.90;;
21190;SDS011;10753;52.304;20.990;2022-07-23T02:39:50;22.77;;;16.67;;
21190;SDS011;10753;52.304;20.990;2022-07-23T02:42:15;24.23;;;18.65;;
21190;SDS011;10753;52.304;20.990;2022-07-23T02:44:41;23.60;;;18.63;;
21190;SDS011;10753;52.304;20.990;2022-07-23T02:47:07;28.33;;;20.05;;
21190;SDS011;10753;52.304;20.990;2022-07-23T02:49:33;24.95;;;18.20;;
21190;SDS011;10753;52.304;20.990;2022-07-23T02:51:58;21.85;;;17.73;;
21190;SDS011;10753;52.304;20.990;2022-07-23T02:54:24;26.13;;;19.73;;
21190;SDS011;10753;52.304;20.990;2022-07-23T02:56:49;24.63;;;17.63;;
21190;SDS011;10753;52.304;20.990;2022-07-23T02:59:16;27.02;;;18.40;;
21190;SDS011;10753;52.304;20.990;2022-07-23T03:01:42;23.85;;;18.10;;
21190;SDS011;10753;52.304;20.990;2022-07-23T03:04:07;25.35;;;19.13;;
21190;SDS011;10753;52.304;20.990;2022-07-23T03:06:33;24.25;;;19.08;;
21190;SDS011;10753;52.304;20.990;2022-07-23T03:08:59;23.23;;;18.02;;
21190;SDS011;10753;52.304;20.990;2022-07-23T03:11:24;20.73;;;17.33;;
21190;SDS011;10753;52.304;20.990;2022-07-23T03:13:50;23.00;;;17.85;;
21190;SDS011;10753;52.304;20.990;2022-07-23T03:16:15;24.63;;;18.17;;
21190;SDS011;10753;52.304;20.990;2022-07-23T03:18:41;22.30;;;17.25;;
21190;SDS011;10753;52.304;20.990;2022-07-23T03:21:07;19.83;;;17.63;;
21190;SDS011;10753;52.304;20.990;2022-07-23T03:23:32;19.67;;;17.58;;
21190;SDS011;10753;52.304;20.990;2022-07-23T03:25:58;23.52;;;18.92;;
21190;SDS011;10753;52.304;20.990;2022-07-23T03:28:23;20.27;;;17.70;;
21190;SDS011;10753;52.304;20.990;2022-07-23T03:30:49;21.73;;;17.88;;
21190;SDS011;10753;52.304;20.990;2022-07-23T03:33:15;22.13;;;17.00;;
21190;SDS011;10753;52.304;20.990;2022-07-23T03:35:42;25.92;;;17.92;;
21190;SDS011;10753;52.304;20.990;2022-07-23T03:38:08;19.02;;;16.27;;
21190;SDS011;10753;52.304;20.990;2022-07-23T03:40:34;19.90;;;16.67;;
21190;SDS011;10753;52.304;20.990;2022-07-23T03:43:00;25.40;;;18.05;;
21190;SDS011;10753;52.304;20.990;2022-07-23T03:45:25;23.23;;;17.27;;
21190;SDS011;10753;52.304;20.990;2022-07-23T03:47:51;28.73;;;17.30;;
21190;SDS011;10753;52.304;20.990;2022-07-23T03:50:17;25.50;;;16.98;;
21190;SDS011;10753;52.304;20.990;2022-07-23T03:52:42;28.00;;;17.30;;
21190;SDS011;10753;52.304;20.990;2022-07-23T03:55:08;28.67;;;17.25;;
21190;SDS011;10753;52.304;20.990;2022-07-23T03:57:34;25.80;;;17.58;;
21190;SDS011;10753;52.304;20.990;2022-07-23T04:00:00;21.13;;;17.50;;
21190;SDS011;10753;52.304;20.990;2022-07-23T04:02:27;23.27;;;16.50;;
21190;SDS011;10753;52.304;20.990;2022-07-23T04:04:53;24.10;;;17.27;;
21190;SDS011;10753;52.304;20.990;2022-07-23T04:07:18;24.25;;;16.73;;
21190;SDS011;10753;52.304;20.990;2022-07-23T04:09:44;21.42;;;16.70;;
21190;SDS011;10753;52.304;20.990;2022-07-23T04:12:10;21.95;;;16.75;;
21190;SDS011;10753;52.304;20.990;2022-07-23T04:14:35;25.30;;;17.75;;
21190;SDS011;10753;52.304;20.990;2022-07-23T04:17:02;23.13;;;17.02;;
21190;SDS011;10753;52.304;20.990;2022-07-23T04:19:27;24.35;;;17.55;;
21190;SDS011;10753;52.304;20.990;2022-07-23T04:21:53;21.25;;;16.65;;
21190;SDS011;10753;52.304;20.990;2022-07-23T04:24:19;20.95;;;16.98;;
21190;SDS011;10753;52.304;20.990;2022-07-23T04:26:44;22.75;;;17.67;;
21190;SDS011;10753;52.304;20.990;2022-07-23T04:29:10;19.50;;;17.30;;
21190;SDS011;10753;52.304;20.990;2022-07-23T04:31:36;23.10;;;18.20;;
21190;SDS011;10753;52.304;20.990;2022-07-23T04:34:01;20.42;;;17.63;;
21190;SDS011;10753;52.304;20.990;2022-07-23T04:36:27;20.52;;;16.65;;
21190;SDS011;10753;52.304;20.990;2022-07-23T04:38:53;23.58;;;18.20;;
21190;SDS011;10753;52.304;20.990;2022-07-23T04:41:19;23.20;;;16.50;;
21190;SDS011;10753;52.304;20.990;2022-07-23T04:43:44;21.80;;;17.52;;
21190;SDS011;10753;52.304;20.990;2022-07-23T04:46:10;23.60;;;17.35;;
21190;SDS011;10753;52.304;20.990;2022-07-23T04:48:36;21.27;;;17.38;;
21190;SDS011;10753;52.304;20.990;2022-07-23T04:51:02;21.70;;;16.98;;
21190;SDS011;10753;52.304;20.990;2022-07-23T04:53:28;22.50;;;17.05;;
21190;SDS011;10753;52.304;20.990;2022-07-23T04:55:54;20.65;;;16.77;;
21190;SDS011;10753;52.304;20.990;2022-07-23T04:58:19;21.45;;;17.25;;
21190;SDS011;10753;52.304;20.990;2022-07-23T05:00:45;20.38;;;17.75;;
21190;SDS011;10753;52.304;20.990;2022-07-23T05:03:11;18.80;;;16.80;;
21190;SDS011;10753;52.304;20.990;2022-07-23T05:05:37;21.55;;;17.10;;
21190;SDS011;10753;52.304;20.990;2022-07-23T05:08:02;19.02;;;16.75;;
21190;SDS011;10753;52.304;20.990;2022-07-23T05:10:28;30.17;;;17.67;;
21190;SDS011;10753;52.304;20.990;2022-07-23T05:12:54;20.90;;;17.15;;
21190;SDS011;10753;52.304;20.990;2022-07-23T05:15:20;19.92;;;17.83;;
21190;SDS011;10753;52.304;20.990;2022-07-23T05:17:45;21.02;;;17.17;;
21190;SDS011;10753;52.304;20.990;2022-07-23T05:20:11;21.13;;;17.40;;
21190;SDS011;10753;52.304;20.990;2022-07-23T05:22:36;18.90;;;17.00;;
21190;SDS011;10753;52.304;20.990;2022-07-23T05:25:02;19.10;;;16.20;;
21190;SDS011;10753;52.304;20.990;2022-07-23T05:27:29;19.60;;;16.67;;
21190;SDS011;10753;52.304;20.990;2022-07-23T05:29:55;18.60;;;16.15;;
21190;SDS011;10753;52.304;20.990;2022-07-23T05:32:20;16.88;;;14.40;;
21190;SDS011;10753;52.304;20.990;2022-07-23T05:34:46;19.05;;;15.23;;
21190;SDS011;10753;52.304;20.990;2022-07-23T05:37:12;17.75;;;14.75;;
21190;SDS011;10753;52.304;20.990;2022-07-23T05:39:37;22.20;;;15.07;;
21190;SDS011;10753;52.304;20.990;2022-07-23T05:42:03;17.85;;;14.55;;
21190;SDS011;10753;52.304;20.990;2022-07-23T05:44:29;16.38;;;13.70;;
21190;SDS011;10753;52.304;20.990;2022-07-23T05:46:54;14.40;;;12.73;;
21190;SDS011;10753;52.304;20.990;2022-07-23T05:49:20;14.68;;;13.10;;
21190;SDS011;10753;52.304;20.990;2022-07-23T05:51:45;16.27;;;14.57;;
21190;SDS011;10753;52.304;20.990;2022-07-23T05:54:11;18.33;;;14.05;;
21190;SDS011;10753;52.304;20.990;2022-07-23T05:56:36;19.00;;;13.85;;
21190;SDS011;10753;52.304;20.990;2022-07-23T05:59:02;17.38;;;13.52;;
21190;SDS011;10753;52.304;20.990;2022-07-23T06:01:28;19.95;;;13.30;;
21190;SDS011;10753;52.304;20.990;2022-07-23T06:03:53;17.90;;;13.52;;
21190;SDS011;10753;52.304;20.990;2022-07-23T06:06:19;16.67;;;13.23;;
21190;SDS011;10753;52.304;20.990;2022-07-23T06:08:44;18.23;;;13.38;;
21190;SDS011;10753;52.304;20.990;2022-07-23T06:11:10;16.13;;;14.32;;
21190;SDS011;10753;52.304;20.990;2022-07-23T06:13:36;17.55;;;14.27;;
21190;SDS011;10753;52.304;20.990;2022-07-23T06:16:01;18.35;;;13.80;;
21190;SDS011;10753;52.304;20.990;2022-07-23T06:18:27;16.00;;;14.32;;
21190;SDS011;10753;52.304;20.990;2022-07-23T06:20:53;14.48;;;13.07;;
21190;SDS011;10753;52.304;20.990;2022-07-23T06:23:19;15.02;;;13.40;;
21190;SDS011;10753;52.304;20.990;2022-07-23T06:25:45;16.88;;;13.20;;
21190;SDS011;10753;52.304;20.990;2022-07-23T06:28:10;14.75;;;12.82;;
21190;SDS011;10753;52.304;20.990;2022-07-23T06:30:36;18.75;;;12.73;;
21190;SDS011;10753;52.304;20.990;2022-07-23T06:33:01;17.23;;;13.38;;
21190;SDS011;10753;52.304;20.990;2022-07-23T06:35:27;14.63;;;12.15;;
21190;SDS011;10753;52.304;20.990;2022-07-23T06:37:53;13.95;;;12.25;;
21190;SDS011;10753;52.304;20.990;2022-07-23T06:40:18;12.48;;;11.20;;
21190;SDS011;10753;52.304;20.990;2022-07-23T06:42:45;14.60;;;12.48;;
21190;SDS011;10753;52.304;20.990;2022-07-23T06:45:11;12.52;;;11.30;;
21190;SDS011;10753;52.304;20.990;2022-07-23T06:47:36;14.75;;;11.93;;
21190;SDS011;10753;52.304;20.990;2022-07-23T06:50:02;17.17;;;11.63;;
21190;SDS011;10753;52.304;20.990;2022-07-23T06:52:28;11.80;;;10.65;;
21190;SDS011;10753;52.304;20.990;2022-07-23T06:54:53;15.38;;;11.98;;
21190;SDS011;10753;52.304;20.990;2022-07-23T06:57:19;13.73;;;11.60;;
21190;SDS011;10753;52.304;20.990;2022-07-23T06:59:45;14.63;;;10.50;;
21190;SDS011;10753;52.304;20.990;2022-07-23T07:02:10;10.93;;;9.93;;
21190;SDS011;10753;52.304;20.990;2022-07-23T07:04:36;13.63;;;9.90;;
21190;SDS011;10753;52.304;20.990;2022-07-23T07:07:02;18.23;;;10.15;;
21190;SDS011;10753;52.304;20.990;2022-07-23T07:09:28;10.60;;;9.52;;
21190;SDS011;10753;52.304;20.990;2022-07-23T07:11:54;13.48;;;10.10;;
21190;SDS011;10753;52.304;20.990;2022-07-23T07:14:19;10.80;;;9.73;;
21190;SDS011;10753;52.304;20.990;2022-07-23T07:16:45;10.43;;;8.50;;
21190;SDS011;10753;52.304;20.990;2022-07-23T07:19:11;9.27;;;8.48;;
21190;SDS011;10753;52.304;20.990;2022-07-23T07:21:36;12.10;;;10.43;;
21190;SDS011;10753;52.304;20.990;2022-07-23T07:24:02;10.13;;;9.18;;
21190;SDS011;10753;52.304;20.990;2022-07-23T07:26:27;11.23;;;7.75;;
21190;SDS011;10753;52.304;20.990;2022-07-23T07:28:53;9.38;;;8.45;;
21190;SDS011;10753;52.304;20.990;2022-07-23T07:31:19;8.77;;;7.90;;
21190;SDS011;10753;52.304;20.990;2022-07-23T07:33:44;11.00;;;7.60;;
21190;SDS011;10753;52.304;20.990;2022-07-23T07:36:10;8.80;;;7.90;;
21190;SDS011;10753;52.304;20.990;2022-07-23T07:38:36;10.23;;;8.15;;
21190;SDS011;10753;52.304;20.990;2022-07-23T07:41:01;9.45;;;7.32;;
21190;SDS011;10753;52.304;20.990;2022-07-23T07:43:27;8.10;;;7.30;;
21190;SDS011;10753;52.304;20.990;2022-07-23T07:45:52;8.60;;;7.70;;
21190;SDS011;10753;52.304;20.990;2022-07-23T07:48:18;9.20;;;7.35;;
21190;SDS011;10753;52.304;20.990;2022-07-23T07:50:43;8.10;;;7.30;;
21190;SDS011;10753;52.304;20.990;2022-07-23T07:53:09;8.27;;;6.90;;
21190;SDS011;10753;52.304;20.990;2022-07-23T07:55:35;7.75;;;7.03;;
21190;SDS011;10753;52.304;20.990;2022-07-23T07:58:00;7.47;;;6.80;;
21190;SDS011;10753;52.304;20.990;2022-07-23T08:00:26;8.77;;;7.07;;
21190;SDS011;10753;52.304;20.990;2022-07-23T08:02:53;8.50;;;7.13;;
21190;SDS011;10753;52.304;20.990;2022-07-23T08:05:23;8.98;;;7.65;;
21190;SDS011;10753;52.304;20.990;2022-07-23T08:07:50;10.30;;;7.43;;
21190;SDS011;10753;52.304;20.990;2022-07-23T08:10:16;7.72;;;7.10;;
21190;SDS011;10753;52.304;20.990;2022-07-23T08:12:43;7.18;;;6.57;;
21190;SDS011;10753;52.304;20.990;2022-07-23T08:15:12;6.75;;;6.15;;
21190;SDS011;10753;52.304;20.990;2022-07-23T08:17:39;7.35;;;6.65;;
21190;SDS011;10753;52.304;20.990;2022-07-23T08:20:05;7.88;;;6.60;;
21190;SDS011;10753;52.304;20.990;2022-07-23T08:25:19;9.45;;;6.60;;
21190;SDS011;10753;52.304;20.990;2022-07-23T08:27:53;7.10;;;6.55;;
21190;SDS011;10753;52.304;20.990;2022-07-23T08:30:19;7.93;;;7.15;;
21190;SDS011;10753;52.304;20.990;2022-07-23T08:32:56;8.40;;;7.30;;
21190;SDS011;10753;52.304;20.990;2022-07-23T08:35:33;9.18;;;7.03;;
21190;SDS011;10753;52.304;20.990;2022-07-23T08:38:03;7.50;;;6.80;;
21190;SDS011;10753;52.304;20.990;2022-07-23T08:40:31;7.47;;;6.75;;
21190;SDS011;10753;52.304;20.990;2022-07-23T08:42:58;7.55;;;6.80;;
21190;SDS011;10753;52.304;20.990;2022-07-23T08:45:25;8.15;;;6.30;;
21190;SDS011;10753;52.304;20.990;2022-07-23T08:47:53;7.32;;;6.63;;
21190;SDS011;10753;52.304;20.990;2022-07-23T08:50:21;7.65;;;6.93;;
21190;SDS011;10753;52.304;20.990;2022-07-23T08:52:51;9.18;;;6.60;;
21190;SDS011;10753;52.304;20.990;2022-07-23T08:55:18;7.60;;;6.45;;
21190;SDS011;10753;52.304;20.990;2022-07-23T08:57:50;6.80;;;6.10;;
21190;SDS011;10753;52.304;20.990;2022-07-23T09:00:17;7.50;;;6.80;;
21190;SDS011;10753;52.304;20.990;2022-07-23T09:02:44;7.40;;;6.32;;
21190;SDS011;10753;52.304;20.990;2022-07-23T09:05:11;6.65;;;6.00;;
21190;SDS011;10753;52.304;20.990;2022-07-23T09:07:38;8.52;;;6.35;;
21190;SDS011;10753;52.304;20.990;2022-07-23T09:10:29;10.18;;;6.05;;
21190;SDS011;10753;52.304;20.990;2022-07-23T09:12:54;7.07;;;6.47;;
21190;SDS011;10753;52.304;20.990;2022-07-23T09:15:20;9.73;;;6.75;;
21190;SDS011;10753;52.304;20.990;2022-07-23T09:17:46;6.78;;;6.10;;
21190;SDS011;10753;52.304;20.990;2022-07-23T09:20:13;9.98;;;6.68;;
21190;SDS011;10753;52.304;20.990;2022-07-23T09:22:47;11.70;;;5.78;;
21190;SDS011;10753;52.304;20.990;2022-07-23T09:25:17;5.80;;;5.30;;
21190;SDS011;10753;52.304;20.990;2022-07-23T09:27:54;6.00;;;5.50;;
21190;SDS011;10753;52.304;20.990;2022-07-23T09:30:25;6.97;;;6.22;;
21190;SDS011;10753;52.304;20.990;2022-07-23T09:38:16;6.32;;;5.85;;
21190;SDS011;10753;52.304;20.990;2022-07-23T09:40:42;6.57;;;5.97;;
21190;SDS011;10753;52.304;20.990;2022-07-23T09:43:08;6.78;;;6.18;;
21190;SDS011;10753;52.304;20.990;2022-07-23T09:45:34;7.25;;;6.35;;
21190;SDS011;10753;52.304;20.990;2022-07-23T09:50:41;6.55;;;5.80;;
21190;SDS011;10753;52.304;20.990;2022-07-23T09:53:08;6.70;;;6.07;;
21190;SDS011;10753;52.304;20.990;2022-07-23T09:55:35;6.47;;;5.93;;
21190;SDS011;10753;52.304;20.990;2022-07-23T09:58:07;8.05;;;6.90;;
21190;SDS011;10753;52.304;20.990;2022-07-23T10:00:42;7.53;;;6.82;;
21190;SDS011;10753;52.304;20.990;2022-07-23T10:03:09;7.75;;;6.30;;
21190;SDS011;10753;52.304;20.990;2022-07-23T10:05:37;6.95;;;6.22;;
21190;SDS011;10753;52.304;20.990;2022-07-23T10:08:05;6.70;;;6.10;;
21190;SDS011;10753;52.304;20.990;2022-07-23T10:10:33;6.35;;;5.85;;
21190;SDS011;10753;52.304;20.990;2022-07-23T10:12:59;6.85;;;6.13;;
21190;SDS011;10753;52.304;20.990;2022-07-23T10:15:51;6.95;;;6.32;;
21190;SDS011;10753;52.304;20.990;2022-07-23T10:18:17;8.30;;;6.40;;
21190;SDS011;10753;52.304;20.990;2022-07-23T10:20:43;6.80;;;6.20;;
21190;SDS011;10753;52.304;20.990;2022-07-23T10:23:28;7.07;;;6.47;;
21190;SDS011;10753;52.304;20.990;2022-07-23T10:36:47;6.88;;;6.28;;
21190;SDS011;10753;52.304;20.990;2022-07-23T10:39:33;6.63;;;6.03;;
21190;SDS011;10753;52.304;20.990;2022-07-23T10:42:15;7.28;;;6.00;;
21190;SDS011;10753;52.304;20.990;2022-07-23T10:44:45;6.70;;;6.10;;
21190;SDS011;10753;52.304;20.990;2022-07-23T10:47:13;6.45;;;5.85;;
21190;SDS011;10753;52.304;20.990;2022-07-23T10:50:16;7.05;;;6.07;;
21190;SDS011;10753;52.304;20.990;2022-07-23T10:55:49;6.82;;;6.22;;
21190;SDS011;10753;52.304;20.990;2022-07-23T10:58:17;7.00;;;6.38;;
21190;SDS011;10753;52.304;20.990;2022-07-23T11:00:45;6.57;;;6.07;;
21190;SDS011;10753;52.304;20.990;2022-07-23T11:03:30;6.57;;;5.97;;
21190;SDS011;10753;52.304;20.990;2022-07-23T11:05:58;6.80;;;6.10;;
21190;SDS011;10753;52.304;20.990;2022-07-23T11:08:25;6.57;;;5.97;;
21190;SDS011;10753;52.304;20.990;2022-07-23T11:13:29;6.07;;;5.45;;
21190;SDS011;10753;52.304;20.990;2022-07-23T11:16:19;5.93;;;5.43;;
21190;SDS011;10753;52.304;20.990;2022-07-23T11:32:06;6.22;;;5.53;;
21190;SDS011;10753;52.304;20.990;2022-07-23T11:34:41;6.97;;;5.90;;
21190;SDS011;10753;52.304;20.990;2022-07-23T11:37:08;7.72;;;6.32;;
21190;SDS011;10753;52.304;20.990;2022-07-23T11:39:35;6.07;;;5.47;;
21190;SDS011;10753;52.304;20.990;2022-07-23T11:42:03;5.60;;;5.18;;
21190;SDS011;10753;52.304;20.990;2022-07-23T11:44:34;7.07;;;5.63;;
21190;SDS011;10753;52.304;20.990;2022-07-23T11:47:02;7.72;;;6.10;;
21190;SDS011;10753;52.304;20.990;2022-07-23T11:49:30;6.68;;;6.07;;
21190;SDS011;10753;52.304;20.990;2022-07-23T11:52:29;7.85;;;5.85;;
21190;SDS011;10753;52.304;20.990;2022-07-23T11:57:18;6.13;;;5.63;;
21190;SDS011;10753;52.304;20.990;2022-07-23T11:59:47;6.75;;;5.95;;
21190;SDS011;10753;52.304;20.990;2022-07-23T12:02:15;6.65;;;5.82;;
21190;SDS011;10753;52.304;20.990;2022-07-23T12:04:42;6.10;;;5.50;;
21190;SDS011;10753;52.304;20.990;2022-07-23T12:09:56;6.07;;;5.47;;
21190;SDS011;10753;52.304;20.990;2022-07-23T12:15:14;6.00;;;5.50;;
21190;SDS011;10753;52.304;20.990;2022-07-23T12:17:43;5.97;;;5.47;;
21190;SDS011;10753;52.304;20.990;2022-07-23T12:20:12;7.03;;;5.55;;
21190;SDS011;10753;52.304;20.990;2022-07-23T12:22:43;5.82;;;5.20;;
21190;SDS011;10753;52.304;20.990;2022-07-23T12:25:14;6.18;;;5.57;;
21190;SDS011;10753;52.304;20.990;2022-07-23T12:27:42;5.82;;;5.30;;
21190;SDS011;10753;52.304;20.990;2022-07-23T12:30:43;6.00;;;5.35;;
21190;SDS011;10753;52.304;20.990;2022-07-23T12:33:12;7.28;;;6.25;;
21190;SDS011;10753;52.304;20.990;2022-07-23T12:35:58;6.38;;;5.82;;
21190;SDS011;10753;52.304;20.990;2022-07-23T12:38:25;6.82;;;5.95;;
21190;SDS011;10753;52.304;20.990;2022-07-23T12:40:56;6.57;;;5.75;;
21190;SDS011;10753;52.304;20.990;2022-07-23T12:43:25;10.82;;;6.70;;
21190;SDS011;10753;52.304;20.990;2022-07-23T12:48:28;7.38;;;5.95;;
21190;SDS011;10753;52.304;20.990;2022-07-23T12:53:32;8.63;;;5.93;;
21190;SDS011;10753;52.304;20.990;2022-07-23T12:56:12;6.70;;;5.95;;
21190;SDS011;10753;52.304;20.990;2022-07-23T12:58:40;5.93;;;5.43;;
21190;SDS011;10753;52.304;20.990;2022-07-23T13:09:10;6.93;;;5.72;;
21190;SDS011;10753;52.304;20.990;2022-07-23T13:11:41;8.25;;;6.05;;
21190;SDS011;10753;52.304;20.990;2022-07-23T13:14:07;6.05;;;5.55;;
21190;SDS011;10753;52.304;20.990;2022-07-23T13:16:33;6.05;;;5.55;;
21190;SDS011;10753;52.304;20.990;2022-07-23T13:18:59;6.15;;;5.55;;
21190;SDS011;10753;52.304;20.990;2022-07-23T13:21:26;7.75;;;5.47;;
21190;SDS011;10753;52.304;20.990;2022-07-23T13:23:52;7.25;;;6.55;;
21190;SDS011;10753;52.304;20.990;2022-07-23T13:26:19;6.53;;;5.90;;
21190;SDS011;10753;52.304;20.990;2022-07-23T13:28:45;7.93;;;6.43;;
21190;SDS011;10753;52.304;20.990;2022-07-23T13:31:11;7.25;;;6.30;;
21190;SDS011;10753;52.304;20.990;2022-07-23T13:33:37;6.45;;;5.88;;
21190;SDS011;10753;52.304;20.990;2022-07-23T13:36:03;6.95;;;5.53;;
21190;SDS011;10753;52.304;20.990;2022-07-23T13:38:29;7.97;;;6.88;;
21190;SDS011;10753;52.304;20.990;2022-07-23T13:40:55;7.53;;;6.03;;
21190;SDS011;10753;52.304;20.990;2022-07-23T13:43:21;7.40;;;6.10;;
21190;SDS011;10753;52.304;20.990;2022-07-23T13:45:49;7.78;;;6.30;;
21190;SDS011;10753;52.304;20.990;2022-07-23T13:48:16;7.32;;;6.70;;
21190;SDS011;10753;52.304;20.990;2022-07-23T13:50:42;7.28;;;6.57;;
21190;SDS011;10753;52.304;20.990;2022-07-23T13:53:10;9.35;;;6.68;;
21190;SDS011;10753;52.304;20.990;2022-07-23T13:55:38;8.50;;;6.82;;
21190;SDS011;10753;52.304;20.990;2022-07-23T13:58:04;8.65;;;7.75;;
21190;SDS011;10753;52.304;20.990;2022-07-23T14:00:31;9.85;;;7.60;;
21190;SDS011;10753;52.304;20.990;2022-07-23T14:02:58;7.85;;;6.95;;
21190;SDS011;10753;52.304;20.990;2022-07-23T14:05:24;11.45;;;7.95;;
21190;SDS011;10753;52.304;20.990;2022-07-23T14:07:50;11.35;;;8.27;;
21190;SDS011;10753;52.304;20.990;2022-07-23T14:10:17;8.50;;;7.28;;
21190;SDS011;10753;52.304;20.990;2022-07-23T14:12:45;7.90;;;7.22;;
21190;SDS011;10753;52.304;20.990;2022-07-23T14:15:12;9.13;;;7.50;;
21190;SDS011;10753;52.304;20.990;2022-07-23T14:17:39;11.73;;;8.68;;
21190;SDS011;10753;52.304;20.990;2022-07-23T14:20:07;8.05;;;7.35;;
21190;SDS011;10753;52.304;20.990;2022-07-23T14:22:33;10.90;;;8.30;;
21190;SDS011;10753;52.304;20.990;2022-07-23T14:24:59;12.52;;;8.52;;
21190;SDS011;10753;52.304;20.990;2022-07-23T14:27:25;7.75;;;7.05;;
21190;SDS011;10753;52.304;20.990;2022-07-23T14:29:52;8.93;;;7.88;;
21190;SDS011;10753;52.304;20.990;2022-07-23T14:32:19;8.70;;;7.88;;
21190;SDS011;10753;52.304;20.990;2022-07-23T14:34:45;14.25;;;7.90;;
21190;SDS011;10753;52.304;20.990;2022-07-23T14:37:10;8.63;;;7.68;;
21190;SDS011;10753;52.304;20.990;2022-07-23T14:39:37;11.52;;;7.80;;
21190;SDS011;10753;52.304;20.990;2022-07-23T14:42:03;9.02;;;8.13;;
21190;SDS011;10753;52.304;20.990;2022-07-23T14:44:29;12.95;;;6.95;;
21190;SDS011;10753;52.304;20.990;2022-07-23T14:46:55;21.63;;;7.07;;
21190;SDS011;10753;52.304;20.990;2022-07-23T14:49:21;52.45;;;9.02;;
21190;SDS011;10753;52.304;20.990;2022-07-23T14:51:46;61.22;;;10.43;;
21190;SDS011;10753;52.304;20.990;2022-07-23T14:54:12;38.28;;;7.80;;
21190;SDS011;10753;52.304;20.990;2022-07-23T14:56:38;25.67;;;8.23;;
21190;SDS011;10753;52.304;20.990;2022-07-23T14:59:05;17.10;;;8.88;;
21190;SDS011;10753;52.304;20.990;2022-07-23T15:01:31;20.15;;;8.55;;
21190;SDS011;10753;52.304;20.990;2022-07-23T15:03:57;13.93;;;10.23;;
21190;SDS011;10753;52.304;20.990;2022-07-23T15:06:23;19.33;;;10.73;;
21190;SDS011;10753;52.304;20.990;2022-07-23T15:08:49;15.00;;;10.65;;
21190;SDS011;10753;52.304;20.990;2022-07-23T15:11:15;11.90;;;10.50;;
21190;SDS011;10753;52.304;20.990;2022-07-23T15:13:41;14.82;;;11.80;;
21190;SDS011;10753;52.304;20.990;2022-07-23T15:16:06;12.73;;;10.80;;
21190;SDS011;10753;52.304;20.990;2022-07-23T15:18:32;14.65;;;10.70;;
21190;SDS011;10753;52.304;20.990;2022-07-23T15:20:59;14.98;;;10.55;;
21190;SDS011;10753;52.304;20.990;2022-07-23T15:23:26;13.93;;;10.80;;